Mc Dowell, Virginia
Current Conditions -  °F | °C
As of 7:55 PM on Tuesday 21 Oct 2014 (Local Time) from KHSP Reporting Station
Drizzle Drizzle  
Wind Chill: 33°   Ceiling: 800
Heat Index: 41°   Visibility: 5mi
Dew Point: 40°   Wind: 15mph
Humidity: 95%   Direction: 290°WNW
Pressure: 29.9"   Gusts: 24mph
Location:  38.3042°N, 79.5227°W
Report Text: KHSP 212355Z AUTO 29013G21KT 5SM DZ OVC008 05/04 A2990 RMK AO2 60005 T00510043 10091 20051
Loading
Personal Weather Stations






























Interactive Weather Map
Tropical Storm Tracking
New forecast layout! Learn more

10-Day Weather Forecast

Advertisements
Track Severe Weather on mobile